Nearby METAR Reports

 

KIKK - Kankakee, Illinois, USA
Distance from station: S 7mi, 12km
Updated: Tue, 23-Jan-2018 3:35pm CST
Overcast
Overcast
 Wind from NW
Wind: NW 10 mph , 17 km/h, Gust: 16 mph , 26 km/h
Barometer: 30.01 inHg , 1016.3 hPa
Clouds: Overcast
Visibility: 10 miles , 16 km
Cloud details: Overcast 2300 ft
2018/01/23 21:35 KIKK 232135Z AUTO 31009G14KT 10SM OVC023 A3001 RMK AO2
KIGQ - Chicago/Lansing, Illinois, USA
Distance from station: NNE 29mi, 47km
Updated: Tue, 23-Jan-2018 3:35pm CST
Overcast
Overcast
 Wind from NW
Wind: NW 7 mph , 11 km/h
Temperature: 30°F , -1°C
Wind Chill: 23°F , -5°C
Dew Point: 27°F , -3°C
Humidity: 86%
Barometer: 29.99 inHg , 1015.6 hPa
Clouds: Overcast
Visibility: 10 miles , 16 km
Cloud details: Partly cloudy 1900 ft
Overcast 2700 ft
2018/01/23 21:35 KIGQ 232135Z AUTO 31006KT 10SM SCT019 OVC027 M01/M03 A2999 RMK AO2 T10111035
 
KJOT - Joliet, Illinois, USA
Distance from station: NW 30mi, 48km
Updated: Tue, 23-Jan-2018 3:35pm CST
Overcast
Overcast
 Wind from NW
Wind: NW 5 mph , 7 km/h
Temperature: 32°F , 0°C
Wind Chill: 27°F , -3°C
Dew Point: 25°F , -4°C
Humidity: 75%
Barometer: 30.00 inHg , 1015.9 hPa
Clouds: Overcast
Visibility: 10 miles , 16 km
Cloud details: Overcast 2400 ft
2018/01/23 21:35 KJOT 232135Z AUTO 32004KT 10SM OVC024 00/M04 A3000 RMK AO2 T00011037
KLOT - Romeoville/Chi, Illinois, USA
Distance from station: NNW 34mi, 55km
Updated: Tue, 23-Jan-2018 3:35pm CST
Overcast
Overcast
 Wind from NNW
Wind: NNW 10 mph , 17 km/h
Temperature: 30°F , -1°C
Wind Chill: 21°F , -6°C
Dew Point: 25°F , -4°C
Humidity: 80%
Barometer: 29.99 inHg , 1015.6 hPa
Clouds: Overcast
Visibility: 10 miles , 16 km
Cloud details: Overcast 2700 ft
2018/01/23 21:35 KLOT 232135Z AUTO 33009KT 10SM OVC027 M01/M04 A2999 RMK AO2 T10081041
 
KC09 - Morris-Washburn, Illinois, USA
Distance from station: WNW 36mi, 58km
Updated: Tue, 23-Jan-2018 3:35pm CST
Overcast
Overcast
 Wind from NW
Wind: NW 7 mph , 11 km/h
Temperature: 32°F , 0°C
Wind Chill: 25°F , -4°C
Dew Point: 27°F , -3°C
Humidity: 80%
Barometer: 29.99 inHg , 1015.6 hPa
Clouds: Overcast
Visibility: 10 miles , 16 km
Cloud details: Overcast 2300 ft
2018/01/23 21:35 KC09 232135Z AUTO 32006KT 10SM OVC023 00/M03 A2999 RMK AO2 T00001033
KRZL - Rensselaer, Indiana, USA
Distance from station: ESE 37mi, 59km
Updated: Tue, 23-Jan-2018 3:35pm CST
Overcast
Overcast
 Wind from WNW
Wind: WNW 16 mph , 26 km/h, Gust: 22 mph , 35 km/h
Temperature: 32°F , 0°C
Wind Chill: 21°F , -6°C
Dew Point: 27°F , -3°C
Humidity: 80%
Barometer: 29.98 inHg , 1015.2 hPa
Clouds: Overcast
Visibility: 10 miles , 16 km
Cloud details: Overcast 1700 ft
2018/01/23 21:35 KRZL 232135Z AUTO 29014G19KT 10SM OVC017 00/M03 A2998 RMK AO2
 
KGYY - Gary Regional, Indiana, USA
Distance from station: NE 37mi, 60km
Updated: Tue, 23-Jan-2018 3:45pm CST
Overcast
Overcast
 Wind from WNW
Wind: WNW 12 mph , 19 km/h
Temperature: 32°F , 0°C
Wind Chill: 23°F , -5°C
Dew Point: 25°F , -4°C
Humidity: 75%
Barometer: 29.99 inHg , 1015.6 hPa
Clouds: Overcast
Visibility: 10 miles , 16 km
Cloud details: Overcast 2400 ft
2018/01/23 21:45 KGYY 232145Z 29010KT 10SM OVC024 00/M04 A2999
KMDW - Chicago, Illinois, USA
Distance from station: N 42mi, 68km
Updated: Tue, 23-Jan-2018 2:53pm CST
Overcast
Overcast
 Wind from WNW
Wind: WNW 9 mph , 15 km/h
Temperature: 30°F , -1°C
Wind Chill: 22°F , -6°C
Dew Point: 25°F , -4°C
Humidity: 80%
Barometer: 29.94 inHg , 1013.9 hPa
Clouds: Overcast
Visibility: 10 miles , 16 km
Cloud details: Mostly cloudy 2400 ft
Overcast 3100 ft
2018/01/23 20:53 KMDW 232053Z 30008KT 10SM BKN024 OVC031 M01/M04 A2994 RMK AO2 SNE49 SLP150 P0000 60000 T10061044 53034
 
KPNT - Pontiac, Illinois, USA
Distance from station: WSW 46mi, 74km
Updated: Tue, 23-Jan-2018 3:35pm CST
Overcast
Overcast
 Wind from WNW
Wind: WNW 18 mph , 30 km/h, Gust: 26 mph , 43 km/h
Temperature: 32°F , 0°C
Wind Chill: 21°F , -6°C
Dew Point: 30°F , -1°C
Humidity: 93%
Barometer: 30.03 inHg , 1016.9 hPa
Clouds: Overcast
Visibility: 10 miles , 16 km
Cloud details: Mostly cloudy 1400 ft
Overcast 1900 ft
2018/01/23 21:35 KPNT 232135Z AUTO 30016G23KT 10SM BKN014 OVC019 00/M01 A3003 RMK AO2 T00001006
KVPZ - Valparaiso, Indiana, USA
Distance from station: ENE 47mi, 75km
Updated: Tue, 23-Jan-2018 3:42pm CST
Haze, Overcast
Haze, Overcast
 Wind from NW
Wind: NW 8 mph , 13 km/h
Temperature: 30°F , -1°C
Wind Chill: 22°F , -6°C
Dew Point: 27°F , -3°C
Humidity: 86%
Barometer: 29.97 inHg , 1014.9 hPa
Summary: Haze
Clouds: Overcast
Visibility: 4 miles , 6 km
Cloud details: Mostly cloudy 2000 ft
Overcast 2700 ft
2018/01/23 21:42 KVPZ 232142Z AUTO 31007KT 4SM HZ BKN020 OVC027 M01/M03 A2997 RMK AO2 SNE42 P0000 T10061033